Time,TemperatureF,DewpointF,PressureIn,WindDirection,WindDirectionDegrees,WindSpeedMPH,WindSpeedGustMPH,Humidity,HourlyPrecipIn,Conditions,Clouds,dailyrainin,SoftwareType,DateUTC
2013-12-13 00:03:00,28.3,19.1,30.22,West,275,6.0,6.0,68,0.00,,,0.00,Wunderground v.1.15,2013-12-13 06:03:00,
2013-12-13 00:09:00,28.3,19.1,30.22,West,279,6.0,7.0,68,0.00,,,0.00,Wunderground v.1.15,2013-12-13 06:09:00,
2013-12-13 00:14:00,28.5,19.6,30.22,West,277,6.0,8.0,69,0.00,,,0.00,Wunderground v.1.15,2013-12-13 06:14:00,
2013-12-13 00:20:00,28.9,20.0,30.22,WNW,282,7.0,8.0,69,0.00,,,0.00,Wunderground v.1.15,2013-12-13 06:20:00,
2013-12-13 00:26:00,28.7,20.1,30.22,WNW,284,7.0,8.0,70,0.00,,,0.00,Wunderground v.1.15,2013-12-13 06:26:00,
2013-12-13 00:32:00,28.7,20.1,30.22,WNW,284,7.0,8.0,70,0.00,,,0.00,Wunderground v.1.15,2013-12-13 06:32:00,
2013-12-13 00:42:00,28.7,20.5,30.22,WNW,284,6.0,8.0,71,0.00,,,0.00,Wunderground v.1.15,2013-12-13 06:42:00,
2013-12-13 00:47:00,28.5,20.3,30.21,WNW,284,5.0,8.0,71,0.00,,,0.00,Wunderground v.1.15,2013-12-13 06:47:00,
2013-12-13 00:57:00,28.4,20.5,30.21,WNW,284,6.0,8.0,72,0.00,,,0.00,Wunderground v.1.15,2013-12-13 06:57:00,
2013-12-13 01:03:00,28.2,20.3,30.21,WNW,282,6.0,8.0,72,0.00,,,0.00,Wunderground v.1.15,2013-12-13 07:03:00,
2013-12-13 01:08:00,28.1,20.6,30.21,West,279,6.0,8.0,73,0.00,,,0.00,Wunderground v.1.15,2013-12-13 07:08:00,
2013-12-13 01:13:00,28.2,20.7,30.21,West,278,6.0,8.0,73,0.00,,,0.00,Wunderground v.1.15,2013-12-13 07:13:00,
2013-12-13 01:19:00,28.2,20.7,30.20,WNW,282,7.0,8.0,73,0.00,,,0.00,Wunderground v.1.15,2013-12-13 07:19:00,
2013-12-13 01:25:00,28.0,20.8,30.20,WNW,282,7.0,8.0,74,0.00,,,0.00,Wunderground v.1.15,2013-12-13 07:25:00,
2013-12-13 01:31:00,28.1,20.9,30.21,WNW,283,7.0,8.0,74,0.00,,,0.00,Wunderground v.1.15,2013-12-13 07:31:00,
2013-12-13 01:36:00,27.9,21.0,30.20,WNW,283,7.0,8.0,75,0.00,,,0.00,Wunderground v.1.15,2013-12-13 07:36:00,
2013-12-13 01:42:00,27.9,21.0,30.21,WNW,283,6.0,8.0,75,0.00,,,0.00,Wunderground v.1.15,2013-12-13 07:42:00,
2013-12-13 01:47:00,28.2,21.3,30.20,WNW,284,7.0,9.0,75,0.00,,,0.00,Wunderground v.1.15,2013-12-13 07:47:00,
2013-12-13 01:55:00,28.4,21.5,30.20,WNW,286,7.0,10.0,75,0.00,,,0.00,Wunderground v.1.15,2013-12-13 07:55:00,
2013-12-13 02:01:00,28.5,21.6,30.20,WNW,286,8.0,8.0,75,0.00,,,0.00,Wunderground v.1.15,2013-12-13 08:01:00,
2013-12-13 02:06:00,28.9,22.0,30.20,WNW,284,8.0,9.0,75,0.00,,,0.00,Wunderground v.1.15,2013-12-13 08:06:00,
2013-12-13 02:12:00,28.9,22.0,30.20,WNW,289,8.0,9.0,75,0.00,,,0.00,Wunderground v.1.15,2013-12-13 08:12:00,
2013-12-13 02:22:00,28.9,22.0,30.19,WNW,284,8.0,8.0,75,0.00,,,0.00,Wunderground v.1.15,2013-12-13 08:22:00,
2013-12-13 02:28:00,28.6,21.7,30.19,WNW,284,7.0,8.0,75,0.00,,,0.00,Wunderground v.1.15,2013-12-13 08:28:00,
2013-12-13 02:33:00,28.5,21.9,30.18,WNW,285,6.0,9.0,76,0.00,,,0.00,Wunderground v.1.15,2013-12-13 08:33:00,
2013-12-13 02:39:00,28.5,21.9,30.18,WNW,284,7.0,9.0,76,0.00,,,0.00,Wunderground v.1.15,2013-12-13 08:39:00,
2013-12-13 02:44:00,28.3,21.7,30.18,WNW,284,6.0,8.0,76,0.00,,,0.00,Wunderground v.1.15,2013-12-13 08:44:00,
2013-12-13 02:50:00,27.9,21.3,30.18,WNW,284,5.0,8.0,76,0.00,,,0.00,Wunderground v.1.15,2013-12-13 08:50:00,
2013-12-13 02:55:00,27.6,21.3,30.18,WNW,284,5.0,8.0,77,0.00,,,0.00,Wunderground v.1.15,2013-12-13 08:55:00,
2013-12-13 03:01:00,27.4,21.1,30.17,WNW,282,6.0,8.0,77,0.00,,,0.00,Wunderground v.1.15,2013-12-13 09:01:00,
2013-12-13 03:07:00,27.4,21.1,30.17,West,281,6.0,8.0,77,0.00,,,0.00,Wunderground v.1.15,2013-12-13 09:07:00,
2013-12-13 03:13:00,27.4,21.1,30.17,West,281,6.0,8.0,77,0.00,,,0.00,Wunderground v.1.15,2013-12-13 09:13:00,
2013-12-13 03:18:00,27.4,21.1,30.17,West,281,6.0,8.0,77,0.00,,,0.00,Wunderground v.1.15,2013-12-13 09:18:00,
2013-12-13 03:24:00,27.4,21.1,30.17,West,277,6.0,8.0,77,0.00,,,0.00,Wunderground v.1.15,2013-12-13 09:24:00,
2013-12-13 03:29:00,27.2,21.2,30.17,West,275,6.0,8.0,78,0.00,,,0.00,Wunderground v.1.15,2013-12-13 09:29:00,
2013-12-13 03:35:00,27.3,21.3,30.17,West,277,7.0,8.0,78,0.00,,,0.00,Wunderground v.1.15,2013-12-13 09:35:00,
2013-12-13 03:40:00,27.3,21.3,30.16,West,276,7.0,8.0,78,0.00,,,0.00,Wunderground v.1.15,2013-12-13 09:40:00,
2013-12-13 03:46:00,27.2,21.2,30.16,West,276,7.0,8.0,78,0.00,,,0.00,Wunderground v.1.15,2013-12-13 09:46:00,
2013-12-13 03:51:00,27.1,21.2,30.16,West,275,7.0,9.0,78,0.00,,,0.00,Wunderground v.1.15,2013-12-13 09:51:00,
2013-12-13 03:57:00,27.0,21.1,30.16,West,272,6.0,9.0,78,0.00,,,0.00,Wunderground v.1.15,2013-12-13 09:57:00,
2013-12-13 04:02:00,27.0,21.1,30.16,West,273,6.0,8.0,78,0.00,,,0.00,Wunderground v.1.15,2013-12-13 10:02:00,
2013-12-13 04:09:00,26.9,21.0,30.16,West,273,6.0,8.0,78,0.00,,,0.00,Wunderground v.1.15,2013-12-13 10:09:00,
2013-12-13 04:15:00,26.9,21.3,30.16,West,273,6.0,8.0,79,0.00,,,0.00,Wunderground v.1.15,2013-12-13 10:15:00,
2013-12-13 04:20:00,26.7,20.8,30.15,West,273,5.0,8.0,78,0.00,,,0.00,Wunderground v.1.15,2013-12-13 10:20:00,
2013-12-13 04:25:00,26.4,20.8,30.15,West,273,5.0,8.0,79,0.00,,,0.00,Wunderground v.1.15,2013-12-13 10:25:00,
2013-12-13 04:31:00,26.1,20.5,30.15,West,273,5.0,6.0,79,0.00,,,0.00,Wunderground v.1.15,2013-12-13 10:31:00,
2013-12-13 04:36:00,25.9,20.3,30.15,West,273,5.0,8.0,79,0.00,,,0.00,Wunderground v.1.15,2013-12-13 10:36:00,
2013-12-13 04:42:00,25.8,20.2,30.15,West,273,4.0,8.0,79,0.00,,,0.00,Wunderground v.1.15,2013-12-13 10:42:00,
2013-12-13 04:47:00,25.8,20.2,30.15,West,273,4.0,8.0,79,0.00,,,0.00,Wunderground v.1.15,2013-12-13 10:47:00,
2013-12-13 04:53:00,26.0,20.7,30.14,West,273,5.0,8.0,80,0.00,,,0.00,Wunderground v.1.15,2013-12-13 10:53:00,
2013-12-13 04:59:00,25.9,20.3,30.14,West,273,6.0,8.0,79,0.00,,,0.00,Wunderground v.1.15,2013-12-13 10:59:00,
2013-12-13 05:04:00,26.0,20.4,30.14,West,273,5.0,8.0,79,0.00,,,0.00,Wunderground v.1.15,2013-12-13 11:04:00,
2013-12-13 05:09:00,26.0,20.4,30.14,West,273,5.0,8.0,79,0.00,,,0.00,Wunderground v.1.15,2013-12-13 11:09:00,
2013-12-13 05:15:00,25.8,20.2,30.14,West,273,5.0,8.0,79,0.00,,,0.00,Wunderground v.1.15,2013-12-13 11:15:00,
2013-12-13 05:20:00,25.9,20.3,30.14,West,273,5.0,5.0,79,0.00,,,0.00,Wunderground v.1.15,2013-12-13 11:20:00,
2013-12-13 05:26:00,25.7,20.1,30.14,West,273,4.0,8.0,79,0.00,,,0.00,Wunderground v.1.15,2013-12-13 11:26:00,
2013-12-13 05:31:00,25.5,19.9,30.14,West,273,3.0,8.0,79,0.00,,,0.00,Wunderground v.1.15,2013-12-13 11:31:00,
2013-12-13 05:37:00,25.0,19.1,30.14,West,273,3.0,8.0,78,0.00,,,0.00,Wunderground v.1.15,2013-12-13 11:37:00,
2013-12-13 05:43:00,24.8,19.2,30.14,West,273,3.0,8.0,79,0.00,,,0.00,Wunderground v.1.15,2013-12-13 11:43:00,
2013-12-13 05:48:00,24.8,19.2,30.13,West,273,4.0,8.0,79,0.00,,,0.00,Wunderground v.1.15,2013-12-13 11:48:00,
2013-12-13 05:54:00,24.6,19.3,30.13,West,273,4.0,8.0,80,0.00,,,0.00,Wunderground v.1.15,2013-12-13 11:54:00,
2013-12-13 05:59:00,24.5,19.2,30.13,West,273,4.0,8.0,80,0.00,,,0.00,Wunderground v.1.15,2013-12-13 11:59:00,
2013-12-13 06:05:00,24.3,18.7,30.13,West,273,3.0,8.0,79,0.00,,,0.00,Wunderground v.1.15,2013-12-13 12:05:00,
2013-12-13 06:10:00,24.2,18.9,30.13,West,273,3.0,8.0,80,0.00,,,0.00,Wunderground v.1.15,2013-12-13 12:10:00,
2013-12-13 06:16:00,24.2,18.9,30.13,West,273,3.0,8.0,80,0.00,,,0.00,Wunderground v.1.15,2013-12-13 12:16:00,
2013-12-13 06:21:00,24.3,19.0,30.14,West,273,3.0,4.0,80,0.00,,,0.00,Wunderground v.1.15,2013-12-13 12:21:00,
2013-12-13 06:27:00,24.4,18.8,30.13,West,273,4.0,8.0,79,0.00,,,0.00,Wunderground v.1.15,2013-12-13 12:27:00,
2013-12-13 06:28:00,24.4,18.8,30.13,West,273,4.0,8.0,79,0.00,,,0.00,Wunderground v.1.15,2013-12-13 12:28:00,
2013-12-13 06:33:00,24.2,18.6,30.13,West,273,3.0,8.0,79,0.00,,,0.00,Wunderground v.1.15,2013-12-13 12:33:00,
2013-12-13 06:48:00,22.8,17.6,30.13,West,273,2.0,8.0,80,0.00,,,0.00,Wunderground v.1.15,2013-12-13 12:48:00,
2013-12-13 06:54:00,22.6,17.6,30.13,West,273,2.0,8.0,81,0.00,,,0.00,Wunderground v.1.15,2013-12-13 12:54:00,
2013-12-13 06:59:00,22.5,17.5,30.13,West,273,2.0,8.0,81,0.00,,,0.00,Wunderground v.1.15,2013-12-13 12:59:00,
2013-12-13 07:05:00,22.4,17.5,30.13,West,273,2.0,8.0,81,0.00,,,0.00,Wunderground v.1.15,2013-12-13 13:05:00,
2013-12-13 07:10:00,22.3,17.6,30.12,West,273,2.0,8.0,82,0.00,,,0.00,Wunderground v.1.15,2013-12-13 13:10:00,
2013-12-13 07:16:00,22.4,17.7,30.12,West,273,3.0,8.0,82,0.00,,,0.00,Wunderground v.1.15,2013-12-13 13:16:00,
2013-12-13 07:21:00,22.6,17.9,30.12,West,273,4.0,8.0,82,0.00,,,0.00,Wunderground v.1.15,2013-12-13 13:21:00,
2013-12-13 07:27:00,22.9,18.2,30.12,West,273,5.0,8.0,82,0.00,,,0.00,Wunderground v.1.15,2013-12-13 13:27:00,
2013-12-13 07:32:00,23.1,18.4,30.12,West,273,5.0,8.0,82,0.00,,,0.00,Wunderground v.1.15,2013-12-13 13:32:00,
2013-12-13 07:38:00,23.8,18.8,30.12,West,265,5.0,8.0,81,0.00,,,0.00,Wunderground v.1.15,2013-12-13 13:38:00,
2013-12-13 07:43:00,24.3,19.0,30.11,West,259,6.0,8.0,80,0.00,,,0.00,Wunderground v.1.15,2013-12-13 13:43:00,
2013-12-13 07:49:00,24.7,19.4,30.12,WSW,254,5.0,8.0,80,0.00,,,0.00,Wunderground v.1.15,2013-12-13 13:49:00,
2013-12-13 07:54:00,25.0,19.7,30.12,WSW,254,5.0,8.0,80,0.00,,,0.00,Wunderground v.1.15,2013-12-13 13:54:00,
2013-12-13 08:00:00,25.5,19.9,30.11,WSW,252,5.0,5.0,79,0.00,,,0.00,Wunderground v.1.15,2013-12-13 14:00:00,
2013-12-13 08:05:00,26.1,20.2,30.12,WSW,254,7.0,9.0,78,0.00,,,0.00,Wunderground v.1.15,2013-12-13 14:05:00,
2013-12-13 08:11:00,26.7,20.5,30.12,WSW,253,7.0,8.0,77,0.00,,,0.00,Wunderground v.1.15,2013-12-13 14:11:00,
2013-12-13 08:16:00,27.0,20.4,30.11,WSW,247,7.0,10.0,76,0.00,,,0.00,Wunderground v.1.15,2013-12-13 14:16:00,
2013-12-13 08:22:00,27.3,20.4,30.12,WSW,252,8.0,10.0,75,0.00,,,0.00,Wunderground v.1.15,2013-12-13 14:22:00,
2013-12-13 08:27:00,27.9,21.0,30.12,WSW,255,8.0,10.0,75,0.00,,,0.00,Wunderground v.1.15,2013-12-13 14:27:00,
2013-12-13 08:33:00,28.5,21.3,30.12,WSW,258,8.0,8.0,74,0.00,,,0.00,Wunderground v.1.15,2013-12-13 14:33:00,
2013-12-13 08:38:00,28.8,21.2,30.12,WSW,254,8.0,9.0,73,0.00,,,0.00,Wunderground v.1.15,2013-12-13 14:38:00,
2013-12-13 08:44:00,28.9,21.3,30.11,WSW,250,8.0,9.0,73,0.00,,,0.00,Wunderground v.1.15,2013-12-13 14:44:00,
2013-12-13 08:49:00,29.2,21.6,30.11,WSW,254,7.0,9.0,73,0.00,,,0.00,Wunderground v.1.15,2013-12-13 14:49:00,
2013-12-13 08:55:00,30.2,22.3,30.11,West,262,8.0,9.0,72,0.00,,,0.00,Wunderground v.1.15,2013-12-13 14:55:00,
2013-12-13 09:00:00,30.8,22.2,30.11,WSW,244,8.0,9.0,70,0.00,,,0.00,Wunderground v.1.15,2013-12-13 15:00:00,
2013-12-13 09:06:00,30.8,21.8,30.11,WSW,253,9.0,10.0,69,0.00,,,0.00,Wunderground v.1.15,2013-12-13 15:06:00,
2013-12-13 09:11:00,31.1,22.1,30.11,West,260,9.0,9.0,69,0.00,,,0.00,Wunderground v.1.15,2013-12-13 15:11:00,
2013-12-13 09:17:00,31.0,22.0,30.11,WSW,257,9.0,14.0,69,0.00,,,0.00,Wunderground v.1.15,2013-12-13 15:17:00,
2013-12-13 09:22:00,30.8,21.8,30.11,WSW,256,9.0,9.0,69,0.00,,,0.00,Wunderground v.1.15,2013-12-13 15:22:00,
2013-12-13 09:28:00,30.8,21.8,30.11,West,260,8.0,9.0,69,0.00,,,0.00,Wunderground v.1.15,2013-12-13 15:28:00,
2013-12-13 09:33:00,31.1,22.1,30.10,West,269,8.0,9.0,69,0.00,,,0.00,Wunderground v.1.15,2013-12-13 15:33:00,
2013-12-13 09:39:00,31.5,22.8,30.10,WSW,253,7.0,9.0,70,0.00,,,0.00,Wunderground v.1.15,2013-12-13 15:39:00,
2013-12-13 09:44:00,32.0,22.6,30.10,West,260,7.0,8.0,68,0.00,,,0.00,Wunderground v.1.15,2013-12-13 15:44:00,
2013-12-13 09:56:00,33.0,22.9,30.09,West,259,8.0,8.0,66,0.00,,,0.00,Wunderground v.1.15,2013-12-13 15:56:00,
2013-12-13 10:01:00,33.3,23.2,30.09,WSW,250,8.0,8.0,66,0.00,,,0.00,Wunderground v.1.15,2013-12-13 16:01:00,
2013-12-13 10:07:00,33.5,22.6,30.09,WSW,251,9.0,11.0,64,0.00,,,0.00,Wunderground v.1.15,2013-12-13 16:07:00,
2013-12-13 10:13:00,33.8,23.3,30.10,West,274,8.0,9.0,65,0.00,,,0.00,Wunderground v.1.15,2013-12-13 16:13:00,
2013-12-13 10:18:00,33.9,23.0,30.09,WSW,253,8.0,9.0,64,0.00,,,0.00,Wunderground v.1.15,2013-12-13 16:18:00,
2013-12-13 10:24:00,34.1,22.8,30.08,WSW,258,8.0,10.0,63,0.00,,,0.00,Wunderground v.1.15,2013-12-13 16:24:00,
2013-12-13 10:29:00,34.3,23.0,30.09,West,259,8.0,10.0,63,0.00,,,0.00,Wunderground v.1.15,2013-12-13 16:29:00,
2013-12-13 10:35:00,34.5,22.8,30.09,WSW,258,9.0,11.0,62,0.00,,,0.00,Wunderground v.1.15,2013-12-13 16:35:00,
2013-12-13 10:40:00,34.5,22.8,30.08,West,270,9.0,9.0,62,0.00,,,0.00,Wunderground v.1.15,2013-12-13 16:40:00,
2013-12-13 10:46:00,34.7,22.6,30.08,West,263,8.0,9.0,61,0.00,,,0.00,Wunderground v.1.15,2013-12-13 16:46:00,
2013-12-13 10:51:00,34.9,22.8,30.07,WSW,254,8.0,8.0,61,0.00,,,0.00,Wunderground v.1.15,2013-12-13 16:51:00,
2013-12-13 10:57:00,35.1,22.6,30.08,West,265,9.0,11.0,60,0.00,,,0.00,Wunderground v.1.15,2013-12-13 16:57:00,
2013-12-13 11:05:00,35.2,22.7,30.07,West,260,9.0,9.0,60,0.00,,,0.00,Wunderground v.1.15,2013-12-13 17:05:00,
2013-12-13 11:10:00,35.3,22.8,30.07,West,271,8.0,9.0,60,0.00,,,0.00,Wunderground v.1.15,2013-12-13 17:10:00,
2013-12-13 11:16:00,35.1,22.6,30.07,West,267,8.0,12.0,60,0.00,,,0.00,Wunderground v.1.15,2013-12-13 17:16:00,
2013-12-13 11:21:00,35.1,23.0,30.06,West,259,8.0,10.0,61,0.00,,,0.00,Wunderground v.1.15,2013-12-13 17:21:00,
2013-12-13 11:27:00,35.0,22.9,30.06,WSW,258,7.0,10.0,61,0.00,,,0.00,Wunderground v.1.15,2013-12-13 17:27:00,
2013-12-13 11:32:00,34.9,22.8,30.06,WSW,248,8.0,8.0,61,0.00,,,0.00,Wunderground v.1.15,2013-12-13 17:32:00,
2013-12-13 11:38:00,34.9,23.2,30.06,West,271,8.0,9.0,62,0.00,,,0.00,Wunderground v.1.15,2013-12-13 17:38:00,
2013-12-13 11:43:00,34.9,23.2,30.06,WSW,254,9.0,11.0,62,0.00,,,0.00,Wunderground v.1.15,2013-12-13 17:43:00,
2013-12-13 11:49:00,34.8,23.9,30.06,West,271,9.0,11.0,64,0.00,,,0.00,Wunderground v.1.15,2013-12-13 17:49:00,
2013-12-13 11:54:00,34.5,25.0,30.05,West,273,9.0,10.0,68,0.00,,,0.00,Wunderground v.1.15,2013-12-13 17:54:00,
2013-12-13 11:59:00,33.7,26.3,30.05,WSW,257,9.0,11.0,74,0.00,,,0.00,Wunderground v.1.15,2013-12-13 17:59:00,
2013-12-13 12:05:00,33.3,26.5,30.05,West,266,9.0,11.0,76,0.00,,,0.00,Wunderground v.1.15,2013-12-13 18:05:00,
2013-12-13 12:11:00,33.2,27.1,30.05,West,271,8.0,10.0,78,0.00,,,0.00,Wunderground v.1.15,2013-12-13 18:11:00,
2013-12-13 12:21:00,32.9,27.7,30.04,West,265,6.0,8.0,81,0.00,,,0.01,Wunderground v.1.15,2013-12-13 18:21:00,
2013-12-13 12:26:00,32.8,27.6,30.03,WSW,254,6.0,8.0,81,0.00,,,0.01,Wunderground v.1.15,2013-12-13 18:26:00,
2013-12-13 12:31:00,32.8,28.2,30.03,WSW,253,6.0,8.0,83,0.00,,,0.01,Wunderground v.1.15,2013-12-13 18:31:00,
2013-12-13 12:37:00,32.6,28.3,30.02,WSW,255,6.0,8.0,84,0.00,,,0.01,Wunderground v.1.15,2013-12-13 18:37:00,
2013-12-13 12:42:00,32.6,28.6,30.02,WSW,249,6.0,8.0,85,0.00,,,0.01,Wunderground v.1.15,2013-12-13 18:42:00,
2013-12-13 12:48:00,32.5,28.8,30.02,WSW,248,6.0,8.0,86,0.00,,,0.02,Wunderground v.1.15,2013-12-13 18:48:00,
2013-12-13 12:53:00,32.5,29.1,30.01,SW,236,5.0,8.0,87,0.00,,,0.02,Wunderground v.1.15,2013-12-13 18:53:00,
2013-12-13 12:59:00,32.4,29.2,30.00,WSW,237,6.0,8.0,88,0.00,,,0.02,Wunderground v.1.15,2013-12-13 18:59:00,
2013-12-13 13:04:00,32.4,29.5,30.00,WSW,238,6.0,8.0,89,0.00,,,0.02,Wunderground v.1.15,2013-12-13 19:04:00,
2013-12-13 13:10:00,32.4,29.5,30.00,SW,234,5.0,8.0,89,0.00,,,0.02,Wunderground v.1.15,2013-12-13 19:10:00,
2013-12-13 13:18:00,32.3,29.7,29.99,WSW,239,6.0,8.0,90,0.00,,,0.03,Wunderground v.1.15,2013-12-13 19:18:00,
2013-12-13 13:24:00,32.3,30.0,29.99,SW,234,6.0,8.0,91,0.08,,,0.04,Wunderground v.1.15,2013-12-13 19:24:00,
2013-12-13 13:32:00,32.3,30.0,29.99,WSW,241,6.0,8.0,91,0.05,,,0.04,Wunderground v.1.15,2013-12-13 19:32:00,
2013-12-13 13:37:00,32.3,30.0,29.99,SW,235,5.0,8.0,91,0.00,,,0.04,Wunderground v.1.15,2013-12-13 19:37:00,
2013-12-13 13:42:00,32.3,30.2,29.99,WSW,242,6.0,8.0,92,0.00,,,0.05,Wunderground v.1.15,2013-12-13 19:42:00,
2013-12-13 13:48:00,32.3,30.2,29.99,SW,235,5.0,8.0,92,0.00,,,0.05,Wunderground v.1.15,2013-12-13 19:48:00,
2013-12-13 13:53:00,32.3,30.2,29.99,WSW,251,5.0,8.0,92,0.06,,,0.06,Wunderground v.1.15,2013-12-13 19:53:00,
2013-12-13 13:59:00,32.3,30.2,29.99,WSW,250,5.0,8.0,92,0.06,,,0.06,Wunderground v.1.15,2013-12-13 19:59:00,
2013-12-13 14:05:00,32.4,30.6,29.99,WSW,250,5.0,8.0,93,0.05,,,0.06,Wunderground v.1.15,2013-12-13 20:05:00,
2013-12-13 14:11:00,32.4,30.6,30.00,WSW,255,5.0,8.0,93,0.00,,,0.06,Wunderground v.1.15,2013-12-13 20:11:00,
2013-12-13 14:17:00,32.4,30.6,29.99,WSW,241,5.0,8.0,93,0.00,,,0.06,Wunderground v.1.15,2013-12-13 20:17:00,
2013-12-13 14:22:00,32.4,30.6,29.99,WSW,237,5.0,8.0,93,0.00,,,0.06,Wunderground v.1.15,2013-12-13 20:22:00,
2013-12-13 14:28:00,32.4,30.6,29.99,SW,236,5.0,8.0,93,0.00,,,0.06,Wunderground v.1.15,2013-12-13 20:28:00,
2013-12-13 14:33:00,32.4,30.6,29.99,WSW,237,5.0,8.0,93,0.00,,,0.06,Wunderground v.1.15,2013-12-13 20:33:00,
2013-12-13 14:39:00,32.4,30.9,29.99,WSW,241,5.0,8.0,94,0.00,,,0.06,Wunderground v.1.15,2013-12-13 20:39:00,
2013-12-13 14:44:00,32.5,31.0,29.99,WSW,238,6.0,8.0,94,0.00,,,0.07,Wunderground v.1.15,2013-12-13 20:44:00,
2013-12-13 14:50:00,32.5,31.0,29.99,SW,236,6.0,6.0,94,0.00,,,0.07,Wunderground v.1.15,2013-12-13 20:50:00,
2013-12-13 14:55:00,32.5,31.0,29.99,WSW,238,6.0,8.0,94,0.00,,,0.07,Wunderground v.1.15,2013-12-13 20:55:00,
2013-12-13 15:01:00,32.5,31.0,29.98,SSW,202,6.0,8.0,94,0.00,,,0.07,Wunderground v.1.15,2013-12-13 21:01:00,
2013-12-13 15:06:00,32.5,31.0,29.98,SW,221,4.0,8.0,94,0.00,,,0.07,Wunderground v.1.15,2013-12-13 21:06:00,
2013-12-13 15:12:00,32.5,31.0,29.98,SW,221,4.0,8.0,94,0.00,,,0.07,Wunderground v.1.15,2013-12-13 21:12:00,
2013-12-13 15:17:00,32.6,31.1,29.98,SW,220,4.0,8.0,94,0.00,,,0.07,Wunderground v.1.15,2013-12-13 21:17:00,
2013-12-13 15:22:00,32.6,31.1,29.98,SW,222,4.0,8.0,94,0.00,,,0.07,Wunderground v.1.15,2013-12-13 21:22:00,
2013-12-13 15:28:00,32.6,31.1,29.98,SSW,198,4.0,8.0,94,0.00,,,0.08,Wunderground v.1.15,2013-12-13 21:28:00,
2013-12-13 15:34:00,32.6,31.1,29.98,SSW,211,3.0,8.0,94,0.00,,,0.08,Wunderground v.1.15,2013-12-13 21:34:00,
2013-12-13 15:39:00,32.6,31.1,29.99,WSW,239,4.0,8.0,94,0.00,,,0.08,Wunderground v.1.15,2013-12-13 21:39:00,
2013-12-13 15:45:00,32.6,31.1,29.98,SW,221,4.0,8.0,94,0.00,,,0.08,Wunderground v.1.15,2013-12-13 21:45:00,
2013-12-13 15:51:00,32.6,31.1,29.98,SSW,209,4.0,8.0,94,0.00,,,0.08,Wunderground v.1.15,2013-12-13 21:51:00,
2013-12-13 15:57:00,32.6,31.3,29.98,SSW,195,4.0,8.0,95,0.00,,,0.08,Wunderground v.1.15,2013-12-13 21:57:00,
2013-12-13 16:02:00,32.6,31.3,29.98,SW,217,4.0,8.0,95,0.00,,,0.09,Wunderground v.1.15,2013-12-13 22:02:00,
2013-12-13 16:08:00,32.6,31.3,29.98,SW,223,4.0,8.0,95,0.07,,,0.10,Wunderground v.1.15,2013-12-13 22:08:00,
2013-12-13 16:13:00,32.6,31.3,29.99,SW,223,4.0,8.0,95,0.07,,,0.10,Wunderground v.1.15,2013-12-13 22:13:00,
2013-12-13 16:19:00,32.6,31.3,29.98,SW,223,3.0,8.0,95,0.05,,,0.10,Wunderground v.1.15,2013-12-13 22:19:00,
2013-12-13 16:24:00,32.6,31.3,29.98,SW,222,3.0,8.0,95,0.04,,,0.10,Wunderground v.1.15,2013-12-13 22:24:00,
2013-12-13 16:30:00,32.6,31.3,29.98,SW,223,3.0,8.0,95,0.00,,,0.11,Wunderground v.1.15,2013-12-13 22:30:00,
2013-12-13 16:35:00,32.7,31.4,29.98,SW,217,3.0,8.0,95,0.08,,,0.12,Wunderground v.1.15,2013-12-13 22:35:00,
2013-12-13 16:41:00,32.7,31.4,29.98,SSW,205,3.0,8.0,95,0.08,,,0.12,Wunderground v.1.15,2013-12-13 22:41:00,
2013-12-13 16:46:00,32.7,31.4,29.98,SW,215,4.0,8.0,95,0.05,,,0.12,Wunderground v.1.15,2013-12-13 22:46:00,
2013-12-13 16:53:00,32.7,31.4,29.98,SSW,195,2.0,8.0,95,0.00,,,0.12,Wunderground v.1.15,2013-12-13 22:53:00,
2013-12-13 16:58:00,32.7,31.4,29.97,SSW,198,2.0,8.0,95,0.00,,,0.13,Wunderground v.1.15,2013-12-13 22:58:00,
2013-12-13 17:04:00,32.7,31.4,29.98,SSW,206,2.0,8.0,95,0.06,,,0.14,Wunderground v.1.15,2013-12-13 23:04:00,
2013-12-13 17:09:00,32.7,31.4,29.97,SSW,201,1.0,8.0,95,0.06,,,0.14,Wunderground v.1.15,2013-12-13 23:09:00,
2013-12-13 17:14:00,32.7,31.4,29.97,SSW,203,1.0,8.0,95,0.06,,,0.14,Wunderground v.1.15,2013-12-13 23:14:00,
2013-12-13 17:20:00,32.8,31.5,29.98,SSW,207,1.0,1.0,95,0.04,,,0.14,Wunderground v.1.15,2013-12-13 23:20:00,
2013-12-13 17:26:00,32.7,31.4,29.98,SW,219,2.0,8.0,95,0.00,,,0.14,Wunderground v.1.15,2013-12-13 23:26:00,
2013-12-13 17:31:00,32.8,31.5,29.97,SW,215,1.0,8.0,95,0.00,,,0.15,Wunderground v.1.15,2013-12-13 23:31:00,
2013-12-13 17:36:00,32.8,31.5,29.98,SSW,202,0.0,8.0,95,0.07,,,0.16,Wunderground v.1.15,2013-12-13 23:36:00,
2013-12-13 17:42:00,32.8,31.5,29.98,SSW,199,0.0,8.0,95,0.07,,,0.16,Wunderground v.1.15,2013-12-13 23:42:00,
2013-12-13 17:47:00,32.8,31.5,29.98,SSE,168,0.0,8.0,95,0.05,,,0.16,Wunderground v.1.15,2013-12-13 23:47:00,
2013-12-13 17:53:00,32.8,31.5,29.98,SSE,168,0.0,8.0,95,0.00,,,0.16,Wunderground v.1.15,2013-12-13 23:53:00,
2013-12-13 17:58:00,32.8,31.5,29.98,SSE,168,0.0,8.0,95,0.00,,,0.17,Wunderground v.1.15,2013-12-13 23:58:00,
2013-12-13 18:04:00,32.8,31.5,29.98,South,169,0.0,8.0,95,0.00,,,0.17,Wunderground v.1.15,2013-12-14 00:04:00,
2013-12-13 18:10:00,32.8,31.5,29.98,South,169,0.0,8.0,95,0.07,,,0.18,Wunderground v.1.15,2013-12-14 00:10:00,
2013-12-13 18:15:00,32.7,31.4,29.98,South,169,1.0,8.0,95,0.06,,,0.18,Wunderground v.1.15,2013-12-14 00:15:00,
2013-12-13 18:21:00,32.8,31.5,29.98,SSE,167,1.0,8.0,95,0.04,,,0.18,Wunderground v.1.15,2013-12-14 00:21:00,
2013-12-13 18:27:00,32.8,31.5,29.98,SSE,163,2.0,8.0,95,0.00,,,0.18,Wunderground v.1.15,2013-12-14 00:27:00,
2013-12-13 18:32:00,32.8,31.5,29.98,SSE,166,1.0,8.0,95,0.00,,,0.19,Wunderground v.1.15,2013-12-14 00:32:00,
2013-12-13 18:37:00,32.8,31.5,29.98,South,175,1.0,8.0,95,0.00,,,0.19,Wunderground v.1.15,2013-12-14 00:37:00,
2013-12-13 18:43:00,32.8,31.5,29.98,SSE,164,2.0,8.0,95,0.00,,,0.19,Wunderground v.1.15,2013-12-14 00:43:00,
2013-12-13 18:48:00,32.8,31.5,29.98,South,171,2.0,8.0,95,0.00,,,0.19,Wunderground v.1.15,2013-12-14 00:48:00,
2013-12-13 18:54:00,32.7,31.4,29.98,SSE,167,1.0,8.0,95,0.00,,,0.20,Wunderground v.1.15,2013-12-14 00:54:00,
2013-12-13 18:59:00,32.7,31.4,29.97,SSE,161,1.0,8.0,95,0.00,,,0.20,Wunderground v.1.15,2013-12-14 00:59:00,
2013-12-13 19:05:00,32.7,31.4,29.97,SE,136,1.0,8.0,95,0.00,,,0.20,Wunderground v.1.15,2013-12-14 01:05:00,
2013-12-13 19:10:00,32.7,31.4,29.97,SE,139,1.0,8.0,95,0.00,,,0.20,Wunderground v.1.15,2013-12-14 01:10:00,
2013-12-13 19:13:00,32.7,31.4,29.97,SSE,147,2.0,8.0,95,0.00,,,0.20,Wunderground v.1.15,2013-12-14 01:13:00,
2013-12-13 19:18:00,32.7,31.4,29.97,SSE,159,3.0,8.0,95,0.00,,,0.20,Wunderground v.1.15,2013-12-14 01:18:00,
2013-12-13 19:23:00,32.8,31.5,29.97,SSE,154,3.0,8.0,95,0.00,,,0.20,Wunderground v.1.15,2013-12-14 01:23:00,
2013-12-13 19:29:00,32.8,31.5,29.97,SSE,150,4.0,8.0,95,0.00,,,0.20,Wunderground v.1.15,2013-12-14 01:29:00,
2013-12-13 19:35:00,32.7,31.4,29.97,SSE,147,3.0,8.0,95,0.00,,,0.20,Wunderground v.1.15,2013-12-14 01:35:00,
2013-12-13 19:40:00,32.7,31.4,29.97,SSE,151,3.0,3.0,95,0.00,,,0.20,Wunderground v.1.15,2013-12-14 01:40:00,
2013-12-13 19:46:00,32.7,31.7,29.97,SSE,151,2.0,8.0,96,0.00,,,0.20,Wunderground v.1.15,2013-12-14 01:46:00,
2013-12-13 19:51:00,32.7,31.7,29.97,SSE,151,1.0,8.0,96,0.00,,,0.20,Wunderground v.1.15,2013-12-14 01:51:00,
2013-12-13 19:57:00,32.6,31.6,29.97,SSE,151,2.0,8.0,96,0.00,,,0.20,Wunderground v.1.15,2013-12-14 01:57:00,
2013-12-13 20:02:00,32.6,31.6,29.97,SSE,151,1.0,8.0,96,0.00,,,0.20,Wunderground v.1.15,2013-12-14 02:02:00,
2013-12-13 20:08:00,32.6,31.6,29.97,SSE,151,0.0,8.0,96,0.00,,,0.20,Wunderground v.1.15,2013-12-14 02:08:00,
2013-12-13 20:13:00,32.6,31.6,29.98,SSE,151,0.0,8.0,96,0.00,,,0.20,Wunderground v.1.15,2013-12-14 02:13:00,
2013-12-13 20:19:00,32.5,31.5,29.97,SSE,151,0.0,8.0,96,0.00,,,0.20,Wunderground v.1.15,2013-12-14 02:19:00,
2013-12-13 20:25:00,32.5,31.5,29.97,SSE,151,0.0,8.0,96,0.00,,,0.20,Wunderground v.1.15,2013-12-14 02:25:00,
2013-12-13 20:31:00,32.5,31.5,29.97,SSE,151,0.0,8.0,96,0.00,,,0.20,Wunderground v.1.15,2013-12-14 02:31:00,
2013-12-13 20:37:00,32.5,31.5,29.97,SSE,151,0.0,8.0,96,0.00,,,0.20,Wunderground v.1.15,2013-12-14 02:37:00,
2013-12-13 20:43:00,32.5,31.5,29.97,SSE,151,0.0,8.0,96,0.00,,,0.20,Wunderground v.1.15,2013-12-14 02:43:00,
2013-12-13 20:48:00,32.4,31.4,29.96,SSE,151,0.0,8.0,96,0.00,,,0.20,Wunderground v.1.15,2013-12-14 02:48:00,
2013-12-13 20:53:00,32.5,31.5,29.96,SSE,151,0.0,8.0,96,0.00,,,0.20,Wunderground v.1.15,2013-12-14 02:53:00,
2013-12-13 20:59:00,32.4,31.4,29.96,SSE,151,0.0,8.0,96,0.00,,,0.20,Wunderground v.1.15,2013-12-14 02:59:00,
2013-12-13 21:04:00,32.5,31.5,29.96,SSE,151,1.0,8.0,96,0.00,,,0.21,Wunderground v.1.15,2013-12-14 03:04:00,
2013-12-13 21:10:00,32.5,31.5,29.96,SSE,151,1.0,8.0,96,0.00,,,0.21,Wunderground v.1.15,2013-12-14 03:10:00,
2013-12-13 21:16:00,32.5,31.5,29.96,SSE,151,1.0,8.0,96,0.00,,,0.21,Wunderground v.1.15,2013-12-14 03:16:00,
2013-12-13 21:21:00,32.5,31.5,29.96,SSE,151,1.0,8.0,96,0.00,,,0.21,Wunderground v.1.15,2013-12-14 03:21:00,
2013-12-13 21:27:00,32.5,31.5,29.96,SSE,151,1.0,8.0,96,0.00,,,0.21,Wunderground v.1.15,2013-12-14 03:27:00,
2013-12-13 21:32:00,32.4,31.4,29.96,SSE,151,0.0,8.0,96,0.00,,,0.21,Wunderground v.1.15,2013-12-14 03:32:00,
2013-12-13 21:38:00,32.4,31.4,29.96,SSE,151,0.0,8.0,96,0.00,,,0.21,Wunderground v.1.15,2013-12-14 03:38:00,
2013-12-13 21:43:00,32.5,31.5,29.96,SSE,151,1.0,8.0,96,0.00,,,0.21,Wunderground v.1.15,2013-12-14 03:43:00,
2013-12-13 21:49:00,32.4,31.4,29.96,SSE,151,2.0,8.0,96,0.00,,,0.21,Wunderground v.1.15,2013-12-14 03:49:00,
2013-12-13 21:54:00,32.4,31.4,29.96,SSE,151,1.0,8.0,96,0.00,,,0.21,Wunderground v.1.15,2013-12-14 03:54:00,
2013-12-13 22:00:00,32.4,31.4,29.96,SSE,151,1.0,1.0,96,0.00,,,0.21,Wunderground v.1.15,2013-12-14 04:00:00,
2013-12-13 22:06:00,32.4,31.4,29.96,SSE,151,1.0,8.0,96,0.00,,,0.21,Wunderground v.1.15,2013-12-14 04:06:00,
2013-12-13 22:13:00,32.4,31.4,29.96,SSE,151,1.0,8.0,96,0.00,,,0.21,Wunderground v.1.15,2013-12-14 04:13:00,
2013-12-13 22:19:00,32.4,31.4,29.96,SSE,149,1.0,8.0,96,0.00,,,0.21,Wunderground v.1.15,2013-12-14 04:19:00,
2013-12-13 22:24:00,32.4,31.4,29.96,SSE,149,1.0,8.0,96,0.00,,,0.21,Wunderground v.1.15,2013-12-14 04:24:00,
2013-12-13 22:30:00,32.4,31.4,29.96,SSE,149,1.0,8.0,96,0.00,,,0.21,Wunderground v.1.15,2013-12-14 04:30:00,
2013-12-13 22:36:00,32.4,31.4,29.96,SSE,149,0.0,8.0,96,0.00,,,0.21,Wunderground v.1.15,2013-12-14 04:36:00,
2013-12-13 22:44:00,32.4,31.4,29.96,SSE,149,0.0,8.0,96,0.00,,,0.22,Wunderground v.1.15,2013-12-14 04:44:00,
2013-12-13 23:03:00,32.4,31.4,29.96,SSE,149,0.0,8.0,96,0.00,,,0.22,Wunderground v.1.15,2013-12-14 05:03:00,
2013-12-13 23:04:00,32.3,31.3,29.96,SSE,148,0.0,8.0,96,0.00,,,0.22,Wunderground v.1.15,2013-12-14 05:04:00,
2013-12-13 23:08:00,32.3,31.3,29.96,SSE,147,0.0,8.0,96,0.00,,,0.22,Wunderground v.1.15,2013-12-14 05:08:00,
2013-12-13 23:11:00,32.3,31.3,29.96,SSE,147,0.0,8.0,96,0.00,,,0.22,Wunderground v.1.15,2013-12-14 05:11:00,
2013-12-13 23:17:00,32.3,31.3,29.96,SSE,147,0.0,8.0,96,0.00,,,0.22,Wunderground v.1.15,2013-12-14 05:17:00,
2013-12-13 23:22:00,32.3,31.3,29.95,SSE,147,0.0,8.0,96,0.00,,,0.22,Wunderground v.1.15,2013-12-14 05:22:00,
2013-12-13 23:28:00,32.3,31.3,29.95,SSE,147,0.0,8.0,96,0.00,,,0.22,Wunderground v.1.15,2013-12-14 05:28:00,
2013-12-13 23:33:00,32.3,31.3,29.95,SSE,147,0.0,8.0,96,0.00,,,0.22,Wunderground v.1.15,2013-12-14 05:33:00,
2013-12-13 23:39:00,32.3,31.3,29.95,SSE,147,0.0,8.0,96,0.00,,,0.22,Wunderground v.1.15,2013-12-14 05:39:00,
2013-12-13 23:44:00,32.3,31.3,29.95,SSE,147,0.0,8.0,96,0.00,,,0.22,Wunderground v.1.15,2013-12-14 05:44:00,
2013-12-13 23:50:00,32.2,31.2,29.95,SSE,147,0.0,8.0,96,0.00,,,0.22,Wunderground v.1.15,2013-12-14 05:50:00,
2013-12-13 23:55:00,32.2,31.2,29.95,SSE,147,0.0,8.0,96,0.00,,,0.22,Wunderground v.1.15,2013-12-14 05:55:00,